APZ731 RKSI-RJAA
Flight info
| Callsign | APZ731 |
|---|---|
| Flight time | 1h 54m |
| Altitude | 39000 |
| Route | EGOBA2H EGOBA Y697 KARBU DCT LANAT Y51 SAMON Y517 ESKAS Y303 ENTAK/N0495F400 Y30 SWAMP SWAMPT |
| Aircraft | B789/H-SDE1E2E3FGHIJ2J3J4J5M1RWXY/LB1D1 |
Departure
| Time | 2026-05-04 18:52 |
|---|---|
| Airport | Incheon International Airport (RKSI) |
Arrival
| Time | 2026-05-04 20:47 |
|---|---|
| Airport | Narita International Airport (RJAA) |
| Time | Latitude | Longitude | Altitude | Speed | Heading |
|---|---|---|---|---|---|
| 2026-05-04 18:17 | 37.46242 | 126.43235 | 37 ft | 0 kts | 71° |
| 2026-05-04 18:27 | 37.46239 | 126.43225 | 37 ft | 2 kts | 71° |
| 2026-05-04 18:27 | 37.46234 | 126.43205 | 36 ft | 2 kts | 70° |
| 2026-05-04 18:27 | 37.46228 | 126.43185 | 36 ft | 2 kts | 67° |
| 2026-05-04 18:27 | 37.46220 | 126.43167 | 36 ft | 2 kts | 58° |
| 2026-05-04 18:28 | 37.46210 | 126.43150 | 35 ft | 2 kts | 38° |
| 2026-05-04 18:28 | 37.46196 | 126.43141 | 37 ft | 2 kts | 11° |
| 2026-05-04 18:28 | 37.46183 | 126.43141 | 36 ft | 1 kts | 343° |
| 2026-05-04 18:28 | 37.46182 | 126.43141 | 36 ft | 0 kts | 342° |
| 2026-05-04 18:32 | 37.46183 | 126.43141 | 36 ft | 0 kts | 342° |
| 2026-05-04 18:33 | 37.46191 | 126.43136 | 35 ft | 3 kts | 335° |
| 2026-05-04 18:33 | 37.46218 | 126.43119 | 35 ft | 6 kts | 334° |
| 2026-05-04 18:33 | 37.46267 | 126.43091 | 36 ft | 9 kts | 335° |
| 2026-05-04 18:33 | 37.46336 | 126.43052 | 35 ft | 12 kts | 336° |
| 2026-05-04 18:34 | 37.46418 | 126.43000 | 37 ft | 12 kts | 314° |
| 2026-05-04 18:34 | 37.46424 | 126.42936 | 37 ft | 6 kts | 251° |
| 2026-05-04 18:34 | 37.46397 | 126.42879 | 37 ft | 9 kts | 236° |
| 2026-05-04 18:34 | 37.46366 | 126.42810 | 37 ft | 5 kts | 263° |
| 2026-05-04 18:35 | 37.46374 | 126.42784 | 37 ft | 4 kts | 302° |
| 2026-05-04 18:35 | 37.46403 | 126.42753 | 38 ft | 7 kts | 324° |
| 2026-05-04 18:35 | 37.46453 | 126.42708 | 35 ft | 11 kts | 325° |
| 2026-05-04 18:35 | 37.46528 | 126.42642 | 36 ft | 15 kts | 325° |
| 2026-05-04 18:36 | 37.46621 | 126.42558 | 38 ft | 18 kts | 325° |
| 2026-05-04 18:36 | 37.46736 | 126.42458 | 38 ft | 22 kts | 325° |
| 2026-05-04 18:36 | 37.46866 | 126.42340 | 37 ft | 25 kts | 326° |
| 2026-05-04 18:36 | 37.47017 | 126.42208 | 36 ft | 28 kts | 324° |
| 2026-05-04 18:37 | 37.47167 | 126.42072 | 37 ft | 28 kts | 326° |
| 2026-05-04 18:37 | 37.47319 | 126.41938 | 36 ft | 24 kts | 324° |
| 2026-05-04 18:37 | 37.47400 | 126.41820 | 38 ft | 12 kts | 263° |
| 2026-05-04 18:37 | 37.47368 | 126.41753 | 35 ft | 9 kts | 234° |
| 2026-05-04 18:38 | 37.47344 | 126.41710 | 38 ft | 0 kts | 235° |
| 2026-05-04 18:38 | 37.47340 | 126.41702 | 38 ft | 0 kts | 235° |
| 2026-05-04 18:49 | 37.47338 | 126.41699 | 38 ft | 2 kts | 235° |
| 2026-05-04 18:49 | 37.47321 | 126.41669 | 38 ft | 6 kts | 235° |
| 2026-05-04 18:49 | 37.47291 | 126.41618 | 38 ft | 8 kts | 232° |
| 2026-05-04 18:50 | 37.47247 | 126.41592 | 39 ft | 5 kts | 171° |
| 2026-05-04 18:50 | 37.47221 | 126.41606 | 39 ft | 7 kts | 149° |
| 2026-05-04 18:50 | 37.47215 | 126.41611 | 39 ft | 0 kts | 143° |
| 2026-05-04 18:51 | 37.47211 | 126.41614 | 39 ft | 4 kts | 144° |
| 2026-05-04 18:51 | 37.46949 | 126.41847 | 36 ft | 80 kts | 144° |
| 2026-05-04 18:52 | 37.46560 | 126.42196 | 40 ft | 126 kts | 144° |
| 2026-05-04 18:52 | 37.45665 | 126.42980 | 66 ft | 183 kts | 144° |
| 2026-05-04 18:52 | 37.44575 | 126.43919 | 633 ft | 194 kts | 144° |
| 2026-05-04 18:52 | 37.43338 | 126.44786 | 1262 ft | 213 kts | 155° |
| 2026-05-04 18:53 | 37.42005 | 126.45696 | 2052 ft | 227 kts | 153° |
| 2026-05-04 18:53 | 37.40598 | 126.46797 | 2705 ft | 244 kts | 150° |
| 2026-05-04 18:53 | 37.39174 | 126.47958 | 3721 ft | 244 kts | 149° |
| 2026-05-04 18:53 | 37.37630 | 126.48767 | 4584 ft | 246 kts | 169° |
| 2026-05-04 18:54 | 37.35914 | 126.49284 | 5212 ft | 265 kts | 166° |
| 2026-05-04 18:54 | 37.34124 | 126.49933 | 6084 ft | 268 kts | 166° |
| 2026-05-04 18:54 | 37.32308 | 126.50573 | 6950 ft | 273 kts | 167° |
| 2026-05-04 18:54 | 37.30461 | 126.51213 | 7774 ft | 278 kts | 163° |
| 2026-05-04 18:55 | 37.28832 | 126.52562 | 8541 ft | 288 kts | 134° |
| 2026-05-04 18:55 | 37.27505 | 126.57364 | 9995 ft | 320 kts | 96° |
| 2026-05-04 18:55 | 37.27300 | 126.60317 | 10007 ft | 356 kts | 94° |
| 2026-05-04 18:56 | 37.27163 | 126.63489 | 9997 ft | 367 kts | 88° |
| 2026-05-04 18:56 | 37.27347 | 126.66739 | 10442 ft | 374 kts | 86° |
| 2026-05-04 18:56 | 37.27502 | 126.69998 | 11512 ft | 376 kts | 86° |
| 2026-05-04 18:56 | 37.27679 | 126.73268 | 12404 ft | 382 kts | 86° |
| 2026-05-04 18:57 | 37.27873 | 126.76667 | 13349 ft | 388 kts | 86° |
| 2026-05-04 18:57 | 37.28057 | 126.80069 | 14208 ft | 394 kts | 87° |
| 2026-05-04 18:57 | 37.28234 | 126.83469 | 15053 ft | 397 kts | 86° |
| 2026-05-04 18:57 | 37.28417 | 126.86944 | 15891 ft | 401 kts | 86° |
| 2026-05-04 18:58 | 37.28679 | 126.90445 | 16670 ft | 405 kts | 81° |
| 2026-05-04 18:58 | 37.29034 | 126.93973 | 17447 ft | 409 kts | 84° |
| 2026-05-04 18:58 | 37.29301 | 126.97540 | 18229 ft | 413 kts | 84° |
| 2026-05-04 18:58 | 37.29608 | 127.01152 | 18912 ft | 417 kts | 83° |
| 2026-05-04 18:59 | 37.29961 | 127.04788 | 19568 ft | 421 kts | 83° |
| 2026-05-04 18:59 | 37.30304 | 127.08459 | 20208 ft | 425 kts | 83° |
| 2026-05-04 18:59 | 37.30672 | 127.12155 | 20807 ft | 429 kts | 78° |
| 2026-05-04 18:59 | 37.31533 | 127.15752 | 21377 ft | 432 kts | 71° |
| 2026-05-04 19:00 | 37.32491 | 127.19347 | 21967 ft | 436 kts | 71° |
| 2026-05-04 19:00 | 37.33693 | 127.22847 | 22527 ft | 439 kts | 58° |
| 2026-05-04 19:00 | 37.35552 | 127.25899 | 23077 ft | 441 kts | 44° |
| 2026-05-04 19:00 | 37.37895 | 127.28313 | 23614 ft | 443 kts | 34° |
| 2026-05-04 19:01 | 37.40420 | 127.30563 | 24057 ft | 447 kts | 34° |
| 2026-05-04 19:01 | 37.42985 | 127.32817 | 24507 ft | 450 kts | 34° |
| 2026-05-04 19:01 | 37.45490 | 127.35200 | 24917 ft | 454 kts | 43° |
| 2026-05-04 19:01 | 37.47565 | 127.38214 | 25361 ft | 458 kts | 55° |
| 2026-05-04 19:02 | 37.49088 | 127.41746 | 25754 ft | 463 kts | 68° |
| 2026-05-04 19:02 | 37.49989 | 127.45650 | 26141 ft | 467 kts | 78° |
| 2026-05-04 19:02 | 37.50646 | 127.49687 | 26505 ft | 470 kts | 78° |
| 2026-05-04 19:02 | 37.51284 | 127.53737 | 26898 ft | 473 kts | 78° |
| 2026-05-04 19:03 | 37.51927 | 127.57819 | 27268 ft | 476 kts | 78° |
| 2026-05-04 19:03 | 37.52565 | 127.61924 | 27621 ft | 479 kts | 81° |
| 2026-05-04 19:03 | 37.52713 | 127.66130 | 27991 ft | 483 kts | 94° |
| 2026-05-04 19:03 | 37.52151 | 127.70296 | 28326 ft | 486 kts | 107° |
| 2026-05-04 19:04 | 37.51061 | 127.74280 | 28598 ft | 489 kts | 110° |
| 2026-05-04 19:04 | 37.49889 | 127.78317 | 28965 ft | 491 kts | 110° |
| 2026-05-04 19:04 | 37.48701 | 127.82371 | 29302 ft | 494 kts | 110° |
| 2026-05-04 19:04 | 37.47523 | 127.86441 | 29616 ft | 497 kts | 110° |
| 2026-05-04 19:05 | 37.46337 | 127.90561 | 29924 ft | 500 kts | 110° |
| 2026-05-04 19:05 | 37.45140 | 127.94683 | 30226 ft | 503 kts | 110° |
| 2026-05-04 19:05 | 37.43931 | 127.98818 | 30469 ft | 506 kts | 110° |
| 2026-05-04 19:05 | 37.42712 | 128.02995 | 30716 ft | 509 kts | 110° |
| 2026-05-04 19:06 | 37.41492 | 128.07182 | 30958 ft | 511 kts | 111° |
| 2026-05-04 19:06 | 37.40263 | 128.11390 | 31179 ft | 514 kts | 111° |
| 2026-05-04 19:06 | 37.39020 | 128.15631 | 31406 ft | 517 kts | 111° |
| 2026-05-04 19:06 | 37.37791 | 128.19819 | 31692 ft | 518 kts | 111° |
| 2026-05-04 19:07 | 37.36541 | 128.24076 | 32027 ft | 519 kts | 111° |
| 2026-05-04 19:07 | 37.35290 | 128.28329 | 32327 ft | 520 kts | 111° |
| 2026-05-04 19:07 | 37.34032 | 128.32600 | 32638 ft | 520 kts | 111° |
| 2026-05-04 19:07 | 37.32772 | 128.36865 | 32950 ft | 521 kts | 111° |
| 2026-05-04 19:08 | 37.31509 | 128.41141 | 33250 ft | 522 kts | 111° |
| 2026-05-04 19:08 | 37.30245 | 128.45411 | 33544 ft | 523 kts | 111° |
| 2026-05-04 19:08 | 37.28974 | 128.49695 | 33838 ft | 524 kts | 112° |
| 2026-05-04 19:08 | 37.27701 | 128.53985 | 34118 ft | 525 kts | 112° |
| 2026-05-04 19:09 | 37.26424 | 128.58277 | 34359 ft | 526 kts | 112° |
| 2026-05-04 19:09 | 37.25140 | 128.62589 | 34607 ft | 527 kts | 112° |
| 2026-05-04 19:09 | 37.23854 | 128.66900 | 34854 ft | 528 kts | 112° |
| 2026-05-04 19:09 | 37.22563 | 128.71220 | 35096 ft | 529 kts | 112° |
| 2026-05-04 19:10 | 37.21270 | 128.75541 | 35335 ft | 530 kts | 112° |
| 2026-05-04 19:10 | 37.19971 | 128.79872 | 35558 ft | 531 kts | 112° |
| 2026-05-04 19:10 | 37.18669 | 128.84211 | 35786 ft | 532 kts | 113° |
| 2026-05-04 19:10 | 37.17365 | 128.88548 | 36020 ft | 533 kts | 113° |
| 2026-05-04 19:11 | 37.16068 | 128.92855 | 36244 ft | 534 kts | 113° |
| 2026-05-04 19:11 | 37.14755 | 128.97208 | 36463 ft | 535 kts | 113° |
| 2026-05-04 19:11 | 37.13440 | 129.01561 | 36704 ft | 535 kts | 113° |
| 2026-05-04 19:11 | 37.12118 | 129.05930 | 36925 ft | 536 kts | 114° |
| 2026-05-04 19:12 | 37.10794 | 129.10299 | 37159 ft | 537 kts | 114° |
| 2026-05-04 19:12 | 37.08135 | 129.19055 | 37580 ft | 538 kts | 114° |
| 2026-05-04 19:12 | 37.06801 | 129.23435 | 37805 ft | 539 kts | 114° |
| 2026-05-04 19:13 | 37.05464 | 129.27819 | 38008 ft | 539 kts | 114° |
| 2026-05-04 19:13 | 37.04123 | 129.32212 | 38230 ft | 540 kts | 114° |
| 2026-05-04 19:13 | 37.02780 | 129.36604 | 38453 ft | 541 kts | 114° |
| 2026-05-04 19:13 | 37.01431 | 129.41005 | 38667 ft | 541 kts | 114° |
| 2026-05-04 19:14 | 37.00083 | 129.45400 | 38887 ft | 540 kts | 115° |
| 2026-05-04 19:14 | 36.98736 | 129.49785 | 39076 ft | 541 kts | 115° |
| 2026-05-04 19:14 | 36.97376 | 129.54199 | 39069 ft | 544 kts | 115° |
| 2026-05-04 19:15 | 36.94665 | 129.62992 | 39062 ft | 540 kts | 115° |
| 2026-05-04 19:15 | 36.91960 | 129.71728 | 39059 ft | 539 kts | 115° |
| 2026-05-04 19:16 | 36.89252 | 129.80453 | 39066 ft | 539 kts | 115° |
| 2026-05-04 19:16 | 36.86546 | 129.89145 | 39069 ft | 540 kts | 115° |
| 2026-05-04 19:17 | 36.83818 | 129.97879 | 39067 ft | 540 kts | 115° |
| 2026-05-04 19:17 | 36.81078 | 130.06626 | 39068 ft | 540 kts | 115° |
| 2026-05-04 19:18 | 36.78335 | 130.15356 | 39073 ft | 541 kts | 115° |
| 2026-05-04 19:18 | 36.75579 | 130.24100 | 39075 ft | 541 kts | 116° |
| 2026-05-04 19:19 | 36.72809 | 130.32860 | 39075 ft | 543 kts | 116° |
| 2026-05-04 19:19 | 36.70053 | 130.41555 | 39072 ft | 543 kts | 116° |
| 2026-05-04 19:20 | 36.67270 | 130.50304 | 39085 ft | 542 kts | 116° |
| 2026-05-04 19:20 | 36.64477 | 130.59058 | 39083 ft | 543 kts | 116° |
| 2026-05-04 19:21 | 36.61685 | 130.67784 | 39085 ft | 543 kts | 116° |
| 2026-05-04 19:21 | 36.58877 | 130.76533 | 39085 ft | 544 kts | 116° |
| 2026-05-04 19:22 | 36.56064 | 130.85271 | 39087 ft | 544 kts | 116° |
| 2026-05-04 19:22 | 36.53242 | 130.94010 | 39091 ft | 545 kts | 116° |
| 2026-05-04 19:23 | 36.50410 | 131.02758 | 39096 ft | 546 kts | 117° |
| 2026-05-04 19:23 | 36.47567 | 131.11510 | 39097 ft | 546 kts | 117° |
| 2026-05-04 19:24 | 36.44719 | 131.20251 | 39091 ft | 546 kts | 117° |
| 2026-05-04 19:24 | 36.41881 | 131.28939 | 39099 ft | 546 kts | 117° |
| 2026-05-04 19:25 | 36.39014 | 131.37687 | 39098 ft | 546 kts | 117° |
| 2026-05-04 19:25 | 36.37799 | 131.42156 | 39130 ft | 551 kts | 105° |
| 2026-05-04 19:25 | 36.37216 | 131.46895 | 39151 ft | 558 kts | 95° |
| 2026-05-04 19:26 | 36.36938 | 131.55131 | 39113 ft | 561 kts | 94° |
| 2026-05-04 19:26 | 36.36670 | 131.64747 | 39124 ft | 561 kts | 95° |
| 2026-05-04 19:27 | 36.36343 | 131.74416 | 39125 ft | 561 kts | 95° |
| 2026-05-04 19:27 | 36.36042 | 131.84083 | 39126 ft | 561 kts | 95° |
| 2026-05-04 19:28 | 36.35711 | 131.93759 | 39124 ft | 561 kts | 95° |
| 2026-05-04 19:28 | 36.35385 | 132.03435 | 39121 ft | 562 kts | 95° |
| 2026-05-04 19:29 | 36.35044 | 132.13123 | 39128 ft | 562 kts | 95° |
| 2026-05-04 19:29 | 36.34698 | 132.22816 | 39126 ft | 563 kts | 95° |
| 2026-05-04 19:30 | 36.34342 | 132.32533 | 39137 ft | 563 kts | 95° |
| 2026-05-04 19:30 | 36.33979 | 132.42246 | 39132 ft | 564 kts | 95° |
| 2026-05-04 19:31 | 36.33607 | 132.51967 | 39136 ft | 564 kts | 95° |
| 2026-05-04 19:31 | 36.33228 | 132.61688 | 39129 ft | 564 kts | 95° |
| 2026-05-04 19:32 | 36.32843 | 132.71341 | 39135 ft | 565 kts | 95° |
| 2026-05-04 19:32 | 36.32448 | 132.81070 | 39122 ft | 565 kts | 95° |
| 2026-05-04 19:33 | 36.32044 | 132.90815 | 39122 ft | 566 kts | 96° |
| 2026-05-04 19:33 | 36.31632 | 133.00558 | 39123 ft | 566 kts | 96° |
| 2026-05-04 19:34 | 36.31211 | 133.10331 | 39122 ft | 567 kts | 96° |
| 2026-05-04 19:34 | 36.30781 | 133.20114 | 39122 ft | 567 kts | 96° |
| 2026-05-04 19:35 | 36.30344 | 133.29884 | 39131 ft | 568 kts | 96° |
| 2026-05-04 19:35 | 36.29898 | 133.39680 | 39130 ft | 569 kts | 96° |
| 2026-05-04 19:36 | 36.29446 | 133.49417 | 39129 ft | 570 kts | 96° |
| 2026-05-04 19:36 | 36.28983 | 133.59230 | 39126 ft | 571 kts | 96° |
| 2026-05-04 19:37 | 36.28590 | 133.67413 | 39133 ft | 572 kts | 96° |
| 2026-05-04 19:37 | 36.28028 | 133.78943 | 39130 ft | 574 kts | 97° |
| 2026-05-04 19:38 | 36.27621 | 133.87137 | 39132 ft | 574 kts | 97° |
| 2026-05-04 19:38 | 36.27122 | 133.97016 | 39130 ft | 574 kts | 97° |
| 2026-05-04 19:39 | 36.26616 | 134.06896 | 39130 ft | 574 kts | 97° |
| 2026-05-04 19:39 | 36.26100 | 134.16796 | 39128 ft | 575 kts | 97° |
| 2026-05-04 19:40 | 36.25575 | 134.26701 | 39135 ft | 576 kts | 97° |
| 2026-05-04 19:40 | 36.25045 | 134.36557 | 39131 ft | 577 kts | 97° |
| 2026-05-04 19:41 | 36.24505 | 134.46485 | 39141 ft | 577 kts | 96° |
| 2026-05-04 19:41 | 36.24595 | 134.51464 | 39175 ft | 581 kts | 83° |
| 2026-05-04 19:41 | 36.25315 | 134.56405 | 39161 ft | 583 kts | 79° |
| 2026-05-04 19:42 | 36.26981 | 134.66262 | 39150 ft | 584 kts | 79° |
| 2026-05-04 19:42 | 36.28633 | 134.76130 | 39154 ft | 585 kts | 79° |
| 2026-05-04 19:43 | 36.30280 | 134.86015 | 39153 ft | 586 kts | 79° |
| 2026-05-04 19:43 | 36.31923 | 134.95918 | 39152 ft | 586 kts | 79° |
| 2026-05-04 19:44 | 36.33554 | 135.05816 | 39149 ft | 585 kts | 79° |
| 2026-05-04 19:44 | 36.35168 | 135.15651 | 39154 ft | 586 kts | 79° |
| 2026-05-04 19:45 | 36.36784 | 135.25562 | 39151 ft | 586 kts | 79° |
| 2026-05-04 19:45 | 36.38394 | 135.35484 | 39149 ft | 586 kts | 79° |
| 2026-05-04 19:46 | 36.39993 | 135.45397 | 39149 ft | 586 kts | 79° |
| 2026-05-04 19:46 | 36.41585 | 135.55319 | 39145 ft | 585 kts | 79° |
| 2026-05-04 19:47 | 36.43157 | 135.65175 | 39142 ft | 586 kts | 79° |
| 2026-05-04 19:47 | 36.44732 | 135.75102 | 39143 ft | 586 kts | 79° |
| 2026-05-04 19:48 | 36.46302 | 135.85053 | 39144 ft | 587 kts | 79° |
| 2026-05-04 19:48 | 36.47864 | 135.95013 | 39151 ft | 587 kts | 80° |
| 2026-05-04 19:49 | 36.49418 | 136.04977 | 39141 ft | 587 kts | 80° |
| 2026-05-04 19:49 | 36.50964 | 136.14943 | 39145 ft | 587 kts | 80° |
| 2026-05-04 19:50 | 36.52502 | 136.24921 | 39140 ft | 588 kts | 80° |
| 2026-05-04 19:50 | 36.54033 | 136.34905 | 39142 ft | 588 kts | 80° |
| 2026-05-04 19:51 | 36.55555 | 136.44896 | 39141 ft | 588 kts | 80° |
| 2026-05-04 19:51 | 36.57062 | 136.54839 | 39144 ft | 588 kts | 80° |
| 2026-05-04 19:52 | 36.58570 | 136.64852 | 39151 ft | 588 kts | 81° |
| 2026-05-04 19:52 | 36.60070 | 136.74873 | 39158 ft | 589 kts | 81° |
| 2026-05-04 19:53 | 36.61556 | 136.84856 | 39149 ft | 589 kts | 81° |
| 2026-05-04 19:53 | 36.63041 | 136.94892 | 39143 ft | 589 kts | 81° |
| 2026-05-04 19:54 | 36.64496 | 137.04965 | 39136 ft | 590 kts | 81° |
| 2026-05-04 19:54 | 36.65936 | 137.15028 | 39134 ft | 590 kts | 81° |
| 2026-05-04 19:55 | 36.67374 | 137.25095 | 39141 ft | 590 kts | 82° |
| 2026-05-04 19:55 | 36.68798 | 137.35171 | 39147 ft | 590 kts | 82° |
| 2026-05-04 19:56 | 36.70211 | 137.45194 | 39158 ft | 591 kts | 82° |
| 2026-05-04 19:56 | 36.71624 | 137.55311 | 39162 ft | 592 kts | 82° |
| 2026-05-04 19:57 | 36.73030 | 137.65417 | 39154 ft | 593 kts | 82° |
| 2026-05-04 19:57 | 36.74421 | 137.75504 | 39169 ft | 589 kts | 82° |
| 2026-05-04 19:58 | 36.75804 | 137.85589 | 39185 ft | 587 kts | 82° |
| 2026-05-04 19:58 | 36.77146 | 137.95419 | 39177 ft | 570 kts | 82° |
| 2026-05-04 19:59 | 36.78446 | 138.05039 | 39184 ft | 554 kts | 82° |
| 2026-05-04 19:59 | 36.79718 | 138.14414 | 38846 ft | 542 kts | 82° |
| 2026-05-04 19:59 | 36.80361 | 138.19003 | 38688 ft | 533 kts | 82° |
| 2026-05-04 20:00 | 36.80994 | 138.23571 | 38163 ft | 533 kts | 83° |
| 2026-05-04 20:00 | 36.81614 | 138.28139 | 37612 ft | 534 kts | 83° |
| 2026-05-04 20:00 | 36.82234 | 138.32720 | 37047 ft | 536 kts | 83° |
| 2026-05-04 20:00 | 36.82861 | 138.37306 | 36462 ft | 537 kts | 83° |
| 2026-05-04 20:01 | 36.83485 | 138.41871 | 35931 ft | 538 kts | 83° |
| 2026-05-04 20:01 | 36.84115 | 138.46539 | 35441 ft | 539 kts | 83° |
| 2026-05-04 20:01 | 36.84728 | 138.51112 | 34911 ft | 541 kts | 83° |
| 2026-05-04 20:01 | 36.85341 | 138.55755 | 34376 ft | 543 kts | 84° |
| 2026-05-04 20:02 | 36.85955 | 138.60431 | 33749 ft | 545 kts | 84° |
| 2026-05-04 20:02 | 36.86571 | 138.65107 | 33163 ft | 546 kts | 84° |
| 2026-05-04 20:02 | 36.87187 | 138.69780 | 32649 ft | 546 kts | 84° |
| 2026-05-04 20:02 | 36.87802 | 138.74478 | 32037 ft | 546 kts | 84° |
| 2026-05-04 20:03 | 36.88397 | 138.79070 | 31482 ft | 547 kts | 84° |
| 2026-05-04 20:03 | 36.89019 | 138.83854 | 30892 ft | 549 kts | 85° |
| 2026-05-04 20:03 | 36.89631 | 138.88570 | 30342 ft | 549 kts | 85° |
| 2026-05-04 20:03 | 36.90241 | 138.93289 | 29687 ft | 550 kts | 85° |
| 2026-05-04 20:04 | 36.90846 | 138.98005 | 29025 ft | 551 kts | 84° |
| 2026-05-04 20:04 | 36.91452 | 139.02726 | 28391 ft | 549 kts | 84° |
| 2026-05-04 20:04 | 36.92043 | 139.07326 | 28202 ft | 537 kts | 84° |
| 2026-05-04 20:05 | 36.93234 | 139.16481 | 28164 ft | 530 kts | 84° |
| 2026-05-04 20:05 | 36.93829 | 139.21006 | 28054 ft | 524 kts | 85° |
| 2026-05-04 20:05 | 36.94411 | 139.25508 | 27703 ft | 524 kts | 84° |
| 2026-05-04 20:05 | 36.94984 | 139.29991 | 27458 ft | 522 kts | 84° |
| 2026-05-04 20:06 | 36.95562 | 139.34475 | 27080 ft | 521 kts | 84° |
| 2026-05-04 20:06 | 36.96141 | 139.38960 | 26778 ft | 521 kts | 84° |
| 2026-05-04 20:06 | 36.96707 | 139.43379 | 26478 ft | 520 kts | 84° |
| 2026-05-04 20:06 | 36.97278 | 139.47860 | 26140 ft | 520 kts | 84° |
| 2026-05-04 20:07 | 36.97845 | 139.52328 | 25834 ft | 519 kts | 84° |
| 2026-05-04 20:07 | 36.98405 | 139.56744 | 25537 ft | 517 kts | 84° |
| 2026-05-04 20:07 | 36.98972 | 139.61225 | 25145 ft | 517 kts | 84° |
| 2026-05-04 20:07 | 36.99534 | 139.65685 | 24829 ft | 517 kts | 84° |
| 2026-05-04 20:08 | 37.00091 | 139.70121 | 24514 ft | 517 kts | 84° |
| 2026-05-04 20:08 | 37.00646 | 139.74544 | 24344 ft | 512 kts | 84° |
| 2026-05-04 20:08 | 37.01193 | 139.78937 | 24143 ft | 509 kts | 84° |
| 2026-05-04 20:08 | 37.01735 | 139.83288 | 24115 ft | 506 kts | 84° |
| 2026-05-04 20:09 | 37.02270 | 139.87602 | 24126 ft | 510 kts | 84° |
| 2026-05-04 20:09 | 37.02815 | 139.91995 | 24106 ft | 510 kts | 84° |
| 2026-05-04 20:09 | 37.03358 | 139.96389 | 24110 ft | 511 kts | 84° |
| 2026-05-04 20:09 | 37.03899 | 140.00794 | 24113 ft | 512 kts | 84° |
| 2026-05-04 20:10 | 37.04439 | 140.05206 | 24103 ft | 512 kts | 84° |
| 2026-05-04 20:10 | 37.04976 | 140.09597 | 24102 ft | 512 kts | 84° |
| 2026-05-04 20:10 | 37.05514 | 140.14008 | 24101 ft | 513 kts | 84° |
| 2026-05-04 20:10 | 37.06051 | 140.18437 | 24099 ft | 514 kts | 84° |
| 2026-05-04 20:11 | 37.06587 | 140.22866 | 24097 ft | 514 kts | 84° |
| 2026-05-04 20:11 | 37.07121 | 140.27293 | 24093 ft | 514 kts | 84° |
| 2026-05-04 20:11 | 37.07652 | 140.31710 | 24091 ft | 515 kts | 84° |
| 2026-05-04 20:11 | 37.08175 | 140.36077 | 23895 ft | 515 kts | 84° |
| 2026-05-04 20:12 | 37.08706 | 140.40525 | 23521 ft | 517 kts | 84° |
| 2026-05-04 20:12 | 37.09237 | 140.44979 | 23201 ft | 515 kts | 84° |
| 2026-05-04 20:12 | 37.09765 | 140.49418 | 22843 ft | 515 kts | 84° |
| 2026-05-04 20:12 | 37.10128 | 140.53855 | 22491 ft | 509 kts | 95° |
| 2026-05-04 20:13 | 37.09790 | 140.58220 | 22160 ft | 498 kts | 109° |
| 2026-05-04 20:13 | 37.08809 | 140.62301 | 21797 ft | 485 kts | 121° |
| 2026-05-04 20:13 | 37.07266 | 140.65975 | 21435 ft | 469 kts | 134° |
| 2026-05-04 20:13 | 37.05278 | 140.69113 | 21026 ft | 454 kts | 145° |
| 2026-05-04 20:14 | 37.02942 | 140.71678 | 20638 ft | 439 kts | 155° |
| 2026-05-04 20:14 | 37.00380 | 140.73622 | 20215 ft | 424 kts | 166° |
| 2026-05-04 20:14 | 36.97691 | 140.74953 | 19979 ft | 407 kts | 175° |
| 2026-05-04 20:14 | 36.94975 | 140.75691 | 19654 ft | 393 kts | 184° |
| 2026-05-04 20:15 | 36.92293 | 140.75884 | 19360 ft | 380 kts | 192° |
| 2026-05-04 20:15 | 36.89696 | 140.75579 | 19056 ft | 370 kts | 199° |
| 2026-05-04 20:15 | 36.87233 | 140.74824 | 18738 ft | 361 kts | 206° |
| 2026-05-04 20:15 | 36.84830 | 140.73900 | 18422 ft | 361 kts | 205° |
| 2026-05-04 20:16 | 36.82425 | 140.72987 | 18113 ft | 360 kts | 205° |
| 2026-05-04 20:16 | 36.80029 | 140.72067 | 17744 ft | 361 kts | 205° |
| 2026-05-04 20:16 | 36.77634 | 140.71145 | 17404 ft | 361 kts | 205° |
| 2026-05-04 20:16 | 36.75228 | 140.70225 | 17082 ft | 361 kts | 205° |
| 2026-05-04 20:17 | 36.72824 | 140.69307 | 16765 ft | 361 kts | 205° |
| 2026-05-04 20:17 | 36.70449 | 140.68399 | 16467 ft | 361 kts | 205° |
| 2026-05-04 20:17 | 36.68044 | 140.67479 | 16155 ft | 362 kts | 205° |
| 2026-05-04 20:17 | 36.65632 | 140.66558 | 15883 ft | 362 kts | 205° |
| 2026-05-04 20:18 | 36.63228 | 140.65641 | 15617 ft | 362 kts | 204° |
| 2026-05-04 20:18 | 36.60817 | 140.64722 | 15323 ft | 362 kts | 204° |
| 2026-05-04 20:18 | 36.58410 | 140.63805 | 15068 ft | 362 kts | 204° |
| 2026-05-04 20:18 | 36.56004 | 140.62889 | 14838 ft | 361 kts | 204° |
| 2026-05-04 20:19 | 36.53596 | 140.61972 | 14602 ft | 362 kts | 204° |
| 2026-05-04 20:19 | 36.51190 | 140.61057 | 14383 ft | 361 kts | 204° |
| 2026-05-04 20:19 | 36.48788 | 140.60144 | 14159 ft | 361 kts | 204° |
| 2026-05-04 20:19 | 36.46419 | 140.59249 | 13130 ft | 353 kts | 203° |
| 2026-05-04 20:20 | 36.44009 | 140.58322 | 11716 ft | 372 kts | 202° |
| 2026-05-04 20:20 | 36.41524 | 140.57380 | 11050 ft | 369 kts | 201° |
| 2026-05-04 20:20 | 36.39121 | 140.56485 | 10996 ft | 355 kts | 201° |
| 2026-05-04 20:20 | 36.36756 | 140.55602 | 10998 ft | 357 kts | 199° |
| 2026-05-04 20:21 | 36.34243 | 140.55339 | 10993 ft | 368 kts | 181° |
| 2026-05-04 20:21 | 36.31740 | 140.55982 | 10999 ft | 379 kts | 164° |
| 2026-05-04 20:21 | 36.27471 | 140.59905 | 10998 ft | 391 kts | 136° |
| 2026-05-04 20:22 | 36.25608 | 140.62371 | 11001 ft | 392 kts | 136° |
| 2026-05-04 20:22 | 36.23754 | 140.64866 | 11004 ft | 392 kts | 136° |
| 2026-05-04 20:22 | 36.21902 | 140.67334 | 11008 ft | 392 kts | 137° |
| 2026-05-04 20:22 | 36.20659 | 140.68975 | 10998 ft | 391 kts | 137° |
| 2026-05-04 20:23 | 36.18805 | 140.71420 | 10297 ft | 391 kts | 136° |
| 2026-05-04 20:23 | 36.16976 | 140.73848 | 9999 ft | 380 kts | 136° |
| 2026-05-04 20:23 | 36.14558 | 140.77052 | 10007 ft | 386 kts | 137° |
| 2026-05-04 20:23 | 36.13308 | 140.78600 | 10001 ft | 381 kts | 144° |
| 2026-05-04 20:24 | 36.11061 | 140.80275 | 10001 ft | 374 kts | 162° |
| 2026-05-04 20:24 | 36.07841 | 140.81742 | 10006 ft | 372 kts | 166° |
| 2026-05-04 20:24 | 36.06191 | 140.82456 | 10009 ft | 372 kts | 166° |
| 2026-05-04 20:24 | 36.03750 | 140.83518 | 10011 ft | 372 kts | 166° |
| 2026-05-04 20:25 | 36.01315 | 140.84599 | 10008 ft | 372 kts | 165° |
| 2026-05-04 20:25 | 35.98885 | 140.85682 | 10008 ft | 371 kts | 165° |
| 2026-05-04 20:25 | 35.96455 | 140.86755 | 10012 ft | 370 kts | 166° |
| 2026-05-04 20:25 | 35.94060 | 140.87808 | 10009 ft | 369 kts | 166° |
| 2026-05-04 20:26 | 35.91641 | 140.88874 | 10009 ft | 369 kts | 166° |
| 2026-05-04 20:26 | 35.89224 | 140.89941 | 10011 ft | 368 kts | 165° |
| 2026-05-04 20:26 | 35.86813 | 140.91003 | 10012 ft | 369 kts | 165° |
| 2026-05-04 20:26 | 35.84390 | 140.92070 | 10012 ft | 368 kts | 165° |
| 2026-05-04 20:27 | 35.81981 | 140.93130 | 10007 ft | 368 kts | 165° |
| 2026-05-04 20:27 | 35.79561 | 140.94192 | 10009 ft | 368 kts | 165° |
| 2026-05-04 20:27 | 35.77143 | 140.95255 | 10004 ft | 368 kts | 165° |
| 2026-05-04 20:27 | 35.74759 | 140.96302 | 10005 ft | 368 kts | 165° |
| 2026-05-04 20:28 | 35.72349 | 140.97359 | 9998 ft | 367 kts | 165° |
| 2026-05-04 20:28 | 35.69943 | 140.98414 | 10002 ft | 368 kts | 165° |
| 2026-05-04 20:28 | 35.67525 | 140.99474 | 10003 ft | 368 kts | 165° |
| 2026-05-04 20:28 | 35.65111 | 141.00532 | 10000 ft | 368 kts | 165° |
| 2026-05-04 20:29 | 35.62702 | 141.01586 | 10000 ft | 368 kts | 165° |
| 2026-05-04 20:29 | 35.60286 | 141.02642 | 9999 ft | 368 kts | 165° |
| 2026-05-04 20:29 | 35.57870 | 141.03697 | 10000 ft | 368 kts | 165° |
| 2026-05-04 20:29 | 35.55454 | 141.04751 | 9997 ft | 369 kts | 165° |
| 2026-05-04 20:30 | 35.53015 | 141.05630 | 10008 ft | 362 kts | 174° |
| 2026-05-04 20:30 | 35.50524 | 141.06210 | 10008 ft | 365 kts | 172° |
| 2026-05-04 20:30 | 35.48072 | 141.06882 | 10010 ft | 366 kts | 172° |
| 2026-05-04 20:30 | 35.45581 | 141.07549 | 10010 ft | 365 kts | 172° |
| 2026-05-04 20:31 | 35.43085 | 141.08175 | 10011 ft | 364 kts | 173° |
| 2026-05-04 20:31 | 35.40647 | 141.08380 | 9992 ft | 346 kts | 189° |
| 2026-05-04 20:31 | 35.38240 | 141.07918 | 10012 ft | 354 kts | 194° |
| 2026-05-04 20:31 | 35.35822 | 141.07357 | 10010 ft | 353 kts | 195° |
| 2026-05-04 20:32 | 35.33450 | 141.06643 | 9988 ft | 345 kts | 206° |
| 2026-05-04 20:32 | 35.31572 | 141.05071 | 9987 ft | 312 kts | 231° |
| 2026-05-04 20:32 | 35.30603 | 141.02911 | 9839 ft | 276 kts | 259° |
| 2026-05-04 20:32 | 35.30761 | 141.00737 | 9705 ft | 246 kts | 291° |
| 2026-05-04 20:33 | 35.31759 | 140.99156 | 9415 ft | 226 kts | 308° |
| 2026-05-04 20:33 | 35.32751 | 140.97687 | 8683 ft | 223 kts | 304° |
| 2026-05-04 20:33 | 35.33716 | 140.96203 | 8063 ft | 223 kts | 306° |
| 2026-05-04 20:33 | 35.34745 | 140.94805 | 7713 ft | 219 kts | 307° |
| 2026-05-04 20:34 | 35.35654 | 140.93361 | 7310 ft | 215 kts | 300° |
| 2026-05-04 20:34 | 35.36316 | 140.91757 | 6898 ft | 212 kts | 290° |
| 2026-05-04 20:34 | 35.36815 | 140.90027 | 6480 ft | 211 kts | 287° |
| 2026-05-04 20:34 | 35.37283 | 140.88357 | 6071 ft | 209 kts | 288° |
| 2026-05-04 20:35 | 35.37773 | 140.86723 | 5887 ft | 202 kts | 290° |
| 2026-05-04 20:35 | 35.38269 | 140.85092 | 5756 ft | 205 kts | 290° |
| 2026-05-04 20:35 | 35.38763 | 140.83459 | 5619 ft | 204 kts | 290° |
| 2026-05-04 20:35 | 35.39255 | 140.81821 | 5482 ft | 204 kts | 291° |
| 2026-05-04 20:36 | 35.39745 | 140.80191 | 5351 ft | 203 kts | 291° |
| 2026-05-04 20:36 | 35.40233 | 140.78565 | 5219 ft | 202 kts | 291° |
| 2026-05-04 20:36 | 35.40714 | 140.76966 | 5086 ft | 202 kts | 291° |
| 2026-05-04 20:36 | 35.41198 | 140.75354 | 4959 ft | 201 kts | 291° |
| 2026-05-04 20:37 | 35.41679 | 140.73748 | 4816 ft | 200 kts | 292° |
| 2026-05-04 20:37 | 35.42159 | 140.72149 | 4689 ft | 199 kts | 292° |
| 2026-05-04 20:37 | 35.42637 | 140.70555 | 4546 ft | 198 kts | 292° |
| 2026-05-04 20:37 | 35.43113 | 140.68969 | 4418 ft | 198 kts | 293° |
| 2026-05-04 20:38 | 35.43588 | 140.67383 | 4288 ft | 198 kts | 293° |
| 2026-05-04 20:38 | 35.44057 | 140.65816 | 4157 ft | 198 kts | 293° |
| 2026-05-04 20:38 | 35.44541 | 140.64219 | 4022 ft | 198 kts | 295° |
| 2026-05-04 20:38 | 35.45318 | 140.62881 | 3990 ft | 192 kts | 316° |
| 2026-05-04 20:39 | 35.46300 | 140.61760 | 3998 ft | 194 kts | 317° |
| 2026-05-04 20:39 | 35.47280 | 140.60645 | 4005 ft | 195 kts | 317° |
| 2026-05-04 20:39 | 35.48274 | 140.59511 | 4010 ft | 194 kts | 317° |
| 2026-05-04 20:39 | 35.49262 | 140.58382 | 4005 ft | 193 kts | 317° |
| 2026-05-04 20:40 | 35.50245 | 140.57259 | 4005 ft | 193 kts | 317° |
| 2026-05-04 20:40 | 35.51231 | 140.56133 | 4004 ft | 193 kts | 318° |
| 2026-05-04 20:40 | 35.52319 | 140.55218 | 3984 ft | 182 kts | 327° |
| 2026-05-04 20:40 | 35.53378 | 140.54431 | 3982 ft | 175 kts | 327° |
| 2026-05-04 20:41 | 35.54416 | 140.53672 | 3982 ft | 168 kts | 327° |
| 2026-05-04 20:41 | 35.55368 | 140.52976 | 3980 ft | 158 kts | 327° |
| 2026-05-04 20:41 | 35.56304 | 140.52291 | 3979 ft | 156 kts | 327° |
| 2026-05-04 20:41 | 35.57245 | 140.51603 | 3980 ft | 158 kts | 327° |
| 2026-05-04 20:42 | 35.58189 | 140.50910 | 3868 ft | 158 kts | 327° |
| 2026-05-04 20:42 | 35.59126 | 140.50224 | 3648 ft | 156 kts | 328° |
| 2026-05-04 20:42 | 35.60055 | 140.49542 | 3453 ft | 155 kts | 328° |
| 2026-05-04 20:42 | 35.60983 | 140.48863 | 3243 ft | 155 kts | 329° |
| 2026-05-04 20:43 | 35.61914 | 140.48189 | 3034 ft | 156 kts | 329° |
| 2026-05-04 20:43 | 35.62835 | 140.47516 | 2822 ft | 156 kts | 329° |
| 2026-05-04 20:43 | 35.63760 | 140.46836 | 2613 ft | 157 kts | 330° |
| 2026-05-04 20:43 | 35.64691 | 140.46162 | 2426 ft | 154 kts | 330° |
| 2026-05-04 20:44 | 35.65612 | 140.45488 | 2211 ft | 153 kts | 330° |
| 2026-05-04 20:44 | 35.66529 | 140.44817 | 2003 ft | 154 kts | 329° |
| 2026-05-04 20:44 | 35.67451 | 140.44142 | 1789 ft | 155 kts | 329° |
| 2026-05-04 20:44 | 35.68380 | 140.43465 | 1574 ft | 156 kts | 329° |
| 2026-05-04 20:45 | 35.69324 | 140.42772 | 1357 ft | 156 kts | 330° |
| 2026-05-04 20:45 | 35.70231 | 140.42110 | 1163 ft | 151 kts | 330° |
| 2026-05-04 20:45 | 35.71134 | 140.41455 | 944 ft | 153 kts | 329° |
| 2026-05-04 20:45 | 35.72062 | 140.40770 | 794 ft | 154 kts | 324° |
| 2026-05-04 20:46 | 35.72984 | 140.40065 | 569 ft | 158 kts | 325° |
| 2026-05-04 20:46 | 35.73935 | 140.39373 | 357 ft | 158 kts | 326° |
| 2026-05-04 20:46 | 35.74830 | 140.38725 | 165 ft | 137 kts | 322° |
| 2026-05-04 20:46 | 35.75504 | 140.38227 | 150 ft | 74 kts | 330° |
| 2026-05-04 20:47 | 35.75786 | 140.38023 | 152 ft | 36 kts | 329° |
| 2026-05-04 20:47 | 35.75988 | 140.37876 | 150 ft | 33 kts | 329° |
| 2026-05-04 20:47 | 35.76184 | 140.37755 | 149 ft | 30 kts | 341° |
| 2026-05-04 20:47 | 35.76357 | 140.37729 | 149 ft | 17 kts | 359° |
| 2026-05-04 20:48 | 35.76469 | 140.37726 | 149 ft | 16 kts | 359° |
| 2026-05-04 20:48 | 35.76557 | 140.37760 | 149 ft | 12 kts | 50° |
| 2026-05-04 20:48 | 35.76605 | 140.37856 | 149 ft | 15 kts | 59° |
| 2026-05-04 20:48 | 35.76613 | 140.37921 | 149 ft | 2 kts | 122° |
| 2026-05-04 20:49 | 35.76600 | 140.37934 | 149 ft | 6 kts | 141° |
| 2026-05-04 20:49 | 35.76548 | 140.37974 | 149 ft | 12 kts | 149° |
| 2026-05-04 20:49 | 35.76520 | 140.38049 | 149 ft | 4 kts | 74° |
| 2026-05-04 20:49 | 35.76533 | 140.38087 | 149 ft | 6 kts | 77° |
| 2026-05-04 20:50 | 35.76530 | 140.38106 | 149 ft | 1 kts | 116° |
| 2026-05-04 20:50 | 35.76520 | 140.38121 | 149 ft | 5 kts | 127° |
| 2026-05-04 20:50 | 35.76496 | 140.38161 | 149 ft | 6 kts | 125° |
| 2026-05-04 20:50 | 35.76488 | 140.38177 | 149 ft | 0 kts | 124° |